sensor_id;sensor_type;location;lat;lon;timestamp;temperature;humidity
11446;DHT22;5779;64.178;15.432;2022-11-30T00:01:33;1.00;99.90
11446;DHT22;5779;64.178;15.432;2022-11-30T00:04:21;1.10;99.90
11446;DHT22;5779;64.178;15.432;2022-11-30T00:07:08;1.30;99.90
11446;DHT22;5779;64.178;15.432;2022-11-30T00:09:55;1.30;99.90
11446;DHT22;5779;64.178;15.432;2022-11-30T00:12:42;1.30;99.90
11446;DHT22;5779;64.178;15.432;2022-11-30T00:15:29;1.40;99.90
11446;DHT22;5779;64.178;15.432;2022-11-30T00:18:16;1.40;99.90
11446;DHT22;5779;64.178;15.432;2022-11-30T00:21:06;1.50;99.90
11446;DHT22;5779;64.178;15.432;2022-11-30T00:23:53;1.50;99.90
11446;DHT22;5779;64.178;15.432;2022-11-30T00:26:40;1.50;99.90
11446;DHT22;5779;64.178;15.432;2022-11-30T00:29:27;1.40;99.90
11446;DHT22;5779;64.178;15.432;2022-11-30T00:32:14;1.20;99.90
11446;DHT22;5779;64.178;15.432;2022-11-30T05:16:41;0.30;99.90
11446;DHT22;5779;64.178;15.432;2022-11-30T05:19:28;1.00;99.90
11446;DHT22;5779;64.178;15.432;2022-11-30T05:22:14;1.10;99.90
11446;DHT22;5779;64.178;15.432;2022-11-30T05:25:02;1.10;99.90
11446;DHT22;5779;64.178;15.432;2022-11-30T05:27:48;1.20;99.90
11446;DHT22;5779;64.178;15.432;2022-11-30T05:30:36;1.20;99.90
11446;DHT22;5779;64.178;15.432;2022-11-30T05:33:24;1.20;99.90
11446;DHT22;5779;64.178;15.432;2022-11-30T05:36:11;1.20;99.90
11446;DHT22;5779;64.178;15.432;2022-11-30T05:38:58;1.20;99.90
11446;DHT22;5779;64.178;15.432;2022-11-30T05:41:44;1.30;99.90
11446;DHT22;5779;64.178;15.432;2022-11-30T05:44:32;1.20;99.90
11446;DHT22;5779;64.178;15.432;2022-11-30T05:47:19;1.20;99.90
11446;DHT22;5779;64.178;15.432;2022-11-30T05:50:08;1.20;99.90
11446;DHT22;5779;64.178;15.432;2022-11-30T05:52:55;1.10;99.90
11446;DHT22;5779;64.178;15.432;2022-11-30T05:55:44;1.00;99.90
11446;DHT22;5779;64.178;15.432;2022-11-30T05:58:31;1.00;99.90
11446;DHT22;5779;64.178;15.432;2022-11-30T06:01:19;1.00;99.90
11446;DHT22;5779;64.178;15.432;2022-11-30T06:04:06;0.80;99.90
11446;DHT22;5779;64.178;15.432;2022-11-30T06:06:55;0.70;99.90
11446;DHT22;5779;64.178;15.432;2022-11-30T06:09:41;0.70;99.90
11446;DHT22;5779;64.178;15.432;2022-11-30T06:12:28;0.60;99.90
11446;DHT22;5779;64.178;15.432;2022-11-30T06:15:15;0.60;99.90
11446;DHT22;5779;64.178;15.432;2022-11-30T06:18:02;0.70;99.90
11446;DHT22;5779;64.178;15.432;2022-11-30T06:20:49;0.90;99.90
11446;DHT22;5779;64.178;15.432;2022-11-30T06:23:37;1.00;99.90
11446;DHT22;5779;64.178;15.432;2022-11-30T06:26:24;1.10;99.90
11446;DHT22;5779;64.178;15.432;2022-11-30T06:29:11;1.30;99.90
11446;DHT22;5779;64.178;15.432;2022-11-30T06:31:58;1.30;99.90
11446;DHT22;5779;64.178;15.432;2022-11-30T06:34:44;1.30;99.90
11446;DHT22;5779;64.178;15.432;2022-11-30T06:37:33;1.30;99.90
11446;DHT22;5779;64.178;15.432;2022-11-30T06:40:22;1.40;99.90
11446;DHT22;5779;64.178;15.432;2022-11-30T06:43:09;1.40;99.90
11446;DHT22;5779;64.178;15.432;2022-11-30T06:45:56;1.40;99.90
11446;DHT22;5779;64.178;15.432;2022-11-30T06:48:42;1.40;99.90
11446;DHT22;5779;64.178;15.432;2022-11-30T06:51:33;1.40;99.90
11446;DHT22;5779;64.178;15.432;2022-11-30T06:54:21;1.40;99.90
11446;DHT22;5779;64.178;15.432;2022-11-30T06:57:09;1.50;99.90
11446;DHT22;5779;64.178;15.432;2022-11-30T06:59:56;1.60;99.90
11446;DHT22;5779;64.178;15.432;2022-11-30T07:02:43;1.50;99.90
11446;DHT22;5779;64.178;15.432;2022-11-30T07:05:31;1.50;99.90
11446;DHT22;5779;64.178;15.432;2022-11-30T07:08:19;1.60;99.90
11446;DHT22;5779;64.178;15.432;2022-11-30T07:11:07;1.50;99.90
11446;DHT22;5779;64.178;15.432;2022-11-30T07:13:55;1.50;99.90
11446;DHT22;5779;64.178;15.432;2022-11-30T07:16:42;1.30;99.90
11446;DHT22;5779;64.178;15.432;2022-11-30T07:19:29;1.20;99.90
11446;DHT22;5779;64.178;15.432;2022-11-30T07:22:16;1.00;99.90
11446;DHT22;5779;64.178;15.432;2022-11-30T07:25:03;1.00;99.90
11446;DHT22;5779;64.178;15.432;2022-11-30T07:28:08;0.90;99.90
11446;DHT22;5779;64.178;15.432;2022-11-30T07:30:56;0.80;99.90
11446;DHT22;5779;64.178;15.432;2022-11-30T07:33:43;0.80;99.90
11446;DHT22;5779;64.178;15.432;2022-11-30T07:36:30;0.80;99.90
11446;DHT22;5779;64.178;15.432;2022-11-30T07:39:17;0.80;99.90
11446;DHT22;5779;64.178;15.432;2022-11-30T07:42:04;0.90;99.90
11446;DHT22;5779;64.178;15.432;2022-11-30T07:44:50;0.90;99.90
11446;DHT22;5779;64.178;15.432;2022-11-30T07:47:38;1.00;99.90
11446;DHT22;5779;64.178;15.432;2022-11-30T07:50:26;1.00;99.90
11446;DHT22;5779;64.178;15.432;2022-11-30T07:53:12;1.00;99.90
11446;DHT22;5779;64.178;15.432;2022-11-30T07:56:03;1.00;99.90
11446;DHT22;5779;64.178;15.432;2022-11-30T07:58:53;1.00;99.90
11446;DHT22;5779;64.178;15.432;2022-11-30T08:01:40;0.90;99.90
11446;DHT22;5779;64.178;15.432;2022-11-30T08:04:28;0.90;99.90
11446;DHT22;5779;64.178;15.432;2022-11-30T08:07:15;0.90;99.90
11446;DHT22;5779;64.178;15.432;2022-11-30T08:10:02;0.90;99.90
11446;DHT22;5779;64.178;15.432;2022-11-30T08:12:49;0.90;99.90
11446;DHT22;5779;64.178;15.432;2022-11-30T08:15:35;0.90;99.90
11446;DHT22;5779;64.178;15.432;2022-11-30T08:18:22;0.90;99.90
11446;DHT22;5779;64.178;15.432;2022-11-30T08:21:13;0.80;99.90
11446;DHT22;5779;64.178;15.432;2022-11-30T08:23:59;0.70;99.90
11446;DHT22;5779;64.178;15.432;2022-11-30T08:26:49;0.80;99.90
11446;DHT22;5779;64.178;15.432;2022-11-30T08:29:37;1.00;99.90
11446;DHT22;5779;64.178;15.432;2022-11-30T08:32:23;0.90;99.90
11446;DHT22;5779;64.178;15.432;2022-11-30T08:35:10;0.90;99.90
11446;DHT22;5779;64.178;15.432;2022-11-30T08:37:58;1.00;99.90
11446;DHT22;5779;64.178;15.432;2022-11-30T08:40:45;0.90;99.90
11446;DHT22;5779;64.178;15.432;2022-11-30T08:43:32;0.70;99.90
11446;DHT22;5779;64.178;15.432;2022-11-30T08:46:20;0.70;99.90
11446;DHT22;5779;64.178;15.432;2022-11-30T08:49:07;0.70;99.90
11446;DHT22;5779;64.178;15.432;2022-11-30T08:51:54;0.80;99.90
11446;DHT22;5779;64.178;15.432;2022-11-30T08:54:43;0.80;99.90
11446;DHT22;5779;64.178;15.432;2022-11-30T08:57:31;0.90;99.90
11446;DHT22;5779;64.178;15.432;2022-11-30T09:00:19;0.80;99.90
11446;DHT22;5779;64.178;15.432;2022-11-30T09:03:06;0.90;99.90
11446;DHT22;5779;64.178;15.432;2022-11-30T09:05:53;0.90;99.90
11446;DHT22;5779;64.178;15.432;2022-11-30T09:08:40;1.00;99.90
11446;DHT22;5779;64.178;15.432;2022-11-30T09:11:30;1.00;99.90
11446;DHT22;5779;64.178;15.432;2022-11-30T09:14:18;1.00;99.90
11446;DHT22;5779;64.178;15.432;2022-11-30T09:17:04;1.00;99.90
11446;DHT22;5779;64.178;15.432;2022-11-30T09:19:51;1.10;99.90
11446;DHT22;5779;64.178;15.432;2022-11-30T09:22:38;1.20;99.90
11446;DHT22;5779;64.178;15.432;2022-11-30T09:25:25;1.20;99.90
11446;DHT22;5779;64.178;15.432;2022-11-30T09:28:14;1.10;99.90
11446;DHT22;5779;64.178;15.432;2022-11-30T09:31:01;1.00;99.90
11446;DHT22;5779;64.178;15.432;2022-11-30T09:33:48;1.10;99.90
11446;DHT22;5779;64.178;15.432;2022-11-30T09:36:35;1.10;99.90
11446;DHT22;5779;64.178;15.432;2022-11-30T09:39:22;1.10;99.90
11446;DHT22;5779;64.178;15.432;2022-11-30T09:42:22;1.10;99.90
11446;DHT22;5779;64.178;15.432;2022-11-30T09:45:15;1.10;99.90
11446;DHT22;5779;64.178;15.432;2022-11-30T09:48:14;0.90;99.90
11446;DHT22;5779;64.178;15.432;2022-11-30T09:51:09;0.90;99.90
11446;DHT22;5779;64.178;15.432;2022-11-30T09:54:01;0.90;99.90
11446;DHT22;5779;64.178;15.432;2022-11-30T09:56:52;1.10;99.90
11446;DHT22;5779;64.178;15.432;2022-11-30T09:59:47;1.30;99.90
11446;DHT22;5779;64.178;15.432;2022-11-30T10:02:38;1.30;99.90
11446;DHT22;5779;64.178;15.432;2022-11-30T10:05:36;1.30;99.90
11446;DHT22;5779;64.178;15.432;2022-11-30T10:08:43;1.20;99.90
11446;DHT22;5779;64.178;15.432;2022-11-30T10:11:40;1.30;99.90
11446;DHT22;5779;64.178;15.432;2022-11-30T10:14:48;1.40;99.90
11446;DHT22;5779;64.178;15.432;2022-11-30T10:28:51;1.40;99.90
11446;DHT22;5779;64.178;15.432;2022-11-30T10:31:39;1.20;99.90
11446;DHT22;5779;64.178;15.432;2022-11-30T10:34:31;1.20;99.90
11446;DHT22;5779;64.178;15.432;2022-11-30T10:37:21;1.30;99.90
11446;DHT22;5779;64.178;15.432;2022-11-30T10:40:10;1.10;99.90
11446;DHT22;5779;64.178;15.432;2022-11-30T10:43:05;1.00;99.90
11446;DHT22;5779;64.178;15.432;2022-11-30T10:45:55;0.90;99.90
11446;DHT22;5779;64.178;15.432;2022-11-30T10:48:46;0.80;99.90
11446;DHT22;5779;64.178;15.432;2022-11-30T10:51:36;0.60;99.90
11446;DHT22;5779;64.178;15.432;2022-11-30T10:54:24;0.80;99.90
11446;DHT22;5779;64.178;15.432;2022-11-30T10:57:12;1.00;99.90
11446;DHT22;5779;64.178;15.432;2022-11-30T11:00:02;1.10;99.90
11446;DHT22;5779;64.178;15.432;2022-11-30T11:02:51;1.20;99.90
11446;DHT22;5779;64.178;15.432;2022-11-30T11:05:38;1.30;99.90
11446;DHT22;5779;64.178;15.432;2022-11-30T11:08:26;1.40;99.90
11446;DHT22;5779;64.178;15.432;2022-11-30T11:11:31;1.50;99.90
11446;DHT22;5779;64.178;15.432;2022-11-30T11:14:20;1.50;99.90
11446;DHT22;5779;64.178;15.432;2022-11-30T11:17:21;1.50;99.90
11446;DHT22;5779;64.178;15.432;2022-11-30T11:20:27;1.40;99.90
11446;DHT22;5779;64.178;15.432;2022-11-30T11:23:20;1.30;99.90
11446;DHT22;5779;64.178;15.432;2022-11-30T11:26:17;1.50;99.90
11446;DHT22;5779;64.178;15.432;2022-11-30T11:29:04;1.50;99.90
11446;DHT22;5779;64.178;15.432;2022-11-30T11:31:51;1.50;99.90
11446;DHT22;5779;64.178;15.432;2022-11-30T11:34:38;1.50;99.90
11446;DHT22;5779;64.178;15.432;2022-11-30T11:37:27;1.60;99.90
11446;DHT22;5779;64.178;15.432;2022-11-30T11:40:17;1.70;99.90
11446;DHT22;5779;64.178;15.432;2022-11-30T11:43:15;1.70;99.90
11446;DHT22;5779;64.178;15.432;2022-11-30T11:46:10;1.80;99.90
11446;DHT22;5779;64.178;15.432;2022-11-30T11:49:00;1.80;99.90
11446;DHT22;5779;64.178;15.432;2022-11-30T11:51:59;1.70;99.90
11446;DHT22;5779;64.178;15.432;2022-11-30T11:54:51;1.70;99.90
11446;DHT22;5779;64.178;15.432;2022-11-30T11:57:42;1.70;99.90
11446;DHT22;5779;64.178;15.432;2022-11-30T12:00:30;1.80;99.90
11446;DHT22;5779;64.178;15.432;2022-11-30T12:03:24;1.80;99.90
11446;DHT22;5779;64.178;15.432;2022-11-30T12:06:16;1.90;99.90
11446;DHT22;5779;64.178;15.432;2022-11-30T12:09:09;1.70;99.90
11446;DHT22;5779;64.178;15.432;2022-11-30T12:11:59;1.60;99.90
11446;DHT22;5779;64.178;15.432;2022-11-30T12:14:47;1.50;99.90
11446;DHT22;5779;64.178;15.432;2022-11-30T12:17:45;1.40;99.90
11446;DHT22;5779;64.178;15.432;2022-11-30T12:20:47;1.40;99.90
11446;DHT22;5779;64.178;15.432;2022-11-30T12:23:48;1.30;99.90
11446;DHT22;5779;64.178;15.432;2022-11-30T12:26:40;1.30;99.90
11446;DHT22;5779;64.178;15.432;2022-11-30T12:29:38;1.40;99.90
11446;DHT22;5779;64.178;15.432;2022-11-30T12:32:41;1.50;99.90
11446;DHT22;5779;64.178;15.432;2022-11-30T12:35:35;1.60;99.90
11446;DHT22;5779;64.178;15.432;2022-11-30T12:38:37;1.60;99.90
11446;DHT22;5779;64.178;15.432;2022-11-30T12:41:37;1.70;99.90
11446;DHT22;5779;64.178;15.432;2022-11-30T12:44:38;1.60;99.90
11446;DHT22;5779;64.178;15.432;2022-11-30T12:47:38;1.70;99.90
11446;DHT22;5779;64.178;15.432;2022-11-30T12:50:39;1.60;99.90
11446;DHT22;5779;64.178;15.432;2022-11-30T12:53:33;1.50;99.90
11446;DHT22;5779;64.178;15.432;2022-11-30T12:56:30;1.30;99.90
11446;DHT22;5779;64.178;15.432;2022-11-30T12:59:24;1.50;99.90
11446;DHT22;5779;64.178;15.432;2022-11-30T13:02:47;1.40;99.90
11446;DHT22;5779;64.178;15.432;2022-11-30T13:05:42;1.30;99.90
11446;DHT22;5779;64.178;15.432;2022-11-30T13:08:36;1.00;99.90
11446;DHT22;5779;64.178;15.432;2022-11-30T13:11:30;0.80;99.90
11446;DHT22;5779;64.178;15.432;2022-11-30T13:14:20;0.70;99.90
11446;DHT22;5779;64.178;15.432;2022-11-30T13:17:15;0.70;99.90
11446;DHT22;5779;64.178;15.432;2022-11-30T13:20:09;0.70;99.90
11446;DHT22;5779;64.178;15.432;2022-11-30T13:23:04;0.80;99.90
11446;DHT22;5779;64.178;15.432;2022-11-30T13:25:59;0.90;99.90
11446;DHT22;5779;64.178;15.432;2022-11-30T13:29:01;0.70;99.90
11446;DHT22;5779;64.178;15.432;2022-11-30T13:31:54;0.80;99.90
11446;DHT22;5779;64.178;15.432;2022-11-30T13:34:42;0.80;99.90
11446;DHT22;5779;64.178;15.432;2022-11-30T13:37:30;0.90;99.90
11446;DHT22;5779;64.178;15.432;2022-11-30T13:40:19;0.80;99.90
11446;DHT22;5779;64.178;15.432;2022-11-30T13:43:14;0.80;99.90
11446;DHT22;5779;64.178;15.432;2022-11-30T13:46:12;0.80;99.90
11446;DHT22;5779;64.178;15.432;2022-11-30T13:49:19;0.90;99.90
11446;DHT22;5779;64.178;15.432;2022-11-30T13:52:08;0.90;99.90
11446;DHT22;5779;64.178;15.432;2022-11-30T13:54:58;0.90;99.90
11446;DHT22;5779;64.178;15.432;2022-11-30T13:58:05;0.90;99.90
11446;DHT22;5779;64.178;15.432;2022-11-30T14:01:23;0.90;99.90
11446;DHT22;5779;64.178;15.432;2022-11-30T14:04:31;0.80;99.90
11446;DHT22;5779;64.178;15.432;2022-11-30T14:07:34;0.70;99.90
11446;DHT22;5779;64.178;15.432;2022-11-30T14:10:30;0.60;99.90
11446;DHT22;5779;64.178;15.432;2022-11-30T14:13:29;0.60;99.90
11446;DHT22;5779;64.178;15.432;2022-11-30T14:16:21;0.60;99.90
11446;DHT22;5779;64.178;15.432;2022-11-30T14:19:09;0.80;99.90
11446;DHT22;5779;64.178;15.432;2022-11-30T14:21:57;0.90;99.90
11446;DHT22;5779;64.178;15.432;2022-11-30T14:24:46;1.10;99.90
11446;DHT22;5779;64.178;15.432;2022-11-30T14:27:36;1.20;99.90
11446;DHT22;5779;64.178;15.432;2022-11-30T14:30:23;1.40;99.90
11446;DHT22;5779;64.178;15.432;2022-11-30T14:33:13;1.30;99.90
11446;DHT22;5779;64.178;15.432;2022-11-30T14:36:01;1.20;99.90
11446;DHT22;5779;64.178;15.432;2022-11-30T14:38:48;1.00;99.90
11446;DHT22;5779;64.178;15.432;2022-11-30T14:41:35;1.10;99.90
11446;DHT22;5779;64.178;15.432;2022-11-30T14:44:33;1.20;99.90
11446;DHT22;5779;64.178;15.432;2022-11-30T14:47:22;1.40;99.90
11446;DHT22;5779;64.178;15.432;2022-11-30T14:50:20;1.40;99.90
11446;DHT22;5779;64.178;15.432;2022-11-30T14:53:18;1.30;99.90
11446;DHT22;5779;64.178;15.432;2022-11-30T14:56:14;1.30;99.90
11446;DHT22;5779;64.178;15.432;2022-11-30T14:59:09;1.10;99.90
11446;DHT22;5779;64.178;15.432;2022-11-30T15:02:00;1.20;99.90
11446;DHT22;5779;64.178;15.432;2022-11-30T15:04:49;1.20;99.90
11446;DHT22;5779;64.178;15.432;2022-11-30T15:07:37;1.30;99.90
11446;DHT22;5779;64.178;15.432;2022-11-30T15:10:28;1.40;99.90
11446;DHT22;5779;64.178;15.432;2022-11-30T15:13:18;1.50;99.90
11446;DHT22;5779;64.178;15.432;2022-11-30T15:16:08;1.60;99.90
11446;DHT22;5779;64.178;15.432;2022-11-30T15:19:17;1.60;99.90
11446;DHT22;5779;64.178;15.432;2022-11-30T15:22:07;1.70;99.90
11446;DHT22;5779;64.178;15.432;2022-11-30T15:25:11;1.80;99.90
11446;DHT22;5779;64.178;15.432;2022-11-30T15:27:59;1.80;99.90
11446;DHT22;5779;64.178;15.432;2022-11-30T15:30:47;1.80;99.90
11446;DHT22;5779;64.178;15.432;2022-11-30T15:33:40;1.80;99.90
11446;DHT22;5779;64.178;15.432;2022-11-30T15:36:33;1.80;99.90
11446;DHT22;5779;64.178;15.432;2022-11-30T15:39:23;1.80;99.90
11446;DHT22;5779;64.178;15.432;2022-11-30T15:42:17;1.80;99.90
11446;DHT22;5779;64.178;15.432;2022-11-30T15:45:13;1.90;99.90
11446;DHT22;5779;64.178;15.432;2022-11-30T15:48:01;1.90;99.90
11446;DHT22;5779;64.178;15.432;2022-11-30T15:50:48;1.90;99.90
11446;DHT22;5779;64.178;15.432;2022-11-30T15:53:47;1.60;99.90
11446;DHT22;5779;64.178;15.432;2022-11-30T15:56:35;1.60;99.90
11446;DHT22;5779;64.178;15.432;2022-11-30T15:59:23;1.50;99.90
11446;DHT22;5779;64.178;15.432;2022-11-30T16:02:25;1.30;99.90
11446;DHT22;5779;64.178;15.432;2022-11-30T16:05:30;1.00;99.90
11446;DHT22;5779;64.178;15.432;2022-11-30T16:08:17;0.80;99.90
11446;DHT22;5779;64.178;15.432;2022-11-30T16:11:05;0.70;99.90
11446;DHT22;5779;64.178;15.432;2022-11-30T16:13:52;0.80;99.90
11446;DHT22;5779;64.178;15.432;2022-11-30T16:16:39;0.70;99.90
11446;DHT22;5779;64.178;15.432;2022-11-30T16:19:26;0.70;99.90
11446;DHT22;5779;64.178;15.432;2022-11-30T16:22:14;0.60;99.90
11446;DHT22;5779;64.178;15.432;2022-11-30T16:25:01;0.70;99.90
11446;DHT22;5779;64.178;15.432;2022-11-30T16:27:50;0.70;99.90
11446;DHT22;5779;64.178;15.432;2022-11-30T16:30:37;0.80;99.90
11446;DHT22;5779;64.178;15.432;2022-11-30T16:33:24;0.80;99.90
11446;DHT22;5779;64.178;15.432;2022-11-30T16:36:14;0.80;99.90
11446;DHT22;5779;64.178;15.432;2022-11-30T16:39:02;0.80;99.90
11446;DHT22;5779;64.178;15.432;2022-11-30T16:41:48;1.00;99.90
11446;DHT22;5779;64.178;15.432;2022-11-30T16:44:37;0.90;99.90
11446;DHT22;5779;64.178;15.432;2022-11-30T16:47:28;1.10;99.90
11446;DHT22;5779;64.178;15.432;2022-11-30T16:50:19;1.20;99.90
11446;DHT22;5779;64.178;15.432;2022-11-30T16:53:10;1.20;99.90
11446;DHT22;5779;64.178;15.432;2022-11-30T16:55:59;1.30;99.90
11446;DHT22;5779;64.178;15.432;2022-11-30T16:58:46;1.40;99.90
11446;DHT22;5779;64.178;15.432;2022-11-30T17:01:38;1.40;99.90
11446;DHT22;5779;64.178;15.432;2022-11-30T17:04:26;1.60;99.90
11446;DHT22;5779;64.178;15.432;2022-11-30T17:07:14;1.70;99.90
11446;DHT22;5779;64.178;15.432;2022-11-30T17:10:02;1.60;99.90
11446;DHT22;5779;64.178;15.432;2022-11-30T17:12:49;1.70;99.90
11446;DHT22;5779;64.178;15.432;2022-11-30T17:15:36;1.70;99.90
11446;DHT22;5779;64.178;15.432;2022-11-30T17:18:24;1.70;99.90
11446;DHT22;5779;64.178;15.432;2022-11-30T17:21:15;1.60;99.90
11446;DHT22;5779;64.178;15.432;2022-11-30T17:24:03;1.60;99.90
11446;DHT22;5779;64.178;15.432;2022-11-30T17:26:50;1.70;99.90
11446;DHT22;5779;64.178;15.432;2022-11-30T17:29:37;1.70;99.90
11446;DHT22;5779;64.178;15.432;2022-11-30T17:32:25;1.70;99.90
11446;DHT22;5779;64.178;15.432;2022-11-30T17:35:14;1.60;99.90
11446;DHT22;5779;64.178;15.432;2022-11-30T17:38:01;1.70;99.90
11446;DHT22;5779;64.178;15.432;2022-11-30T17:40:48;1.70;99.90
11446;DHT22;5779;64.178;15.432;2022-11-30T17:43:35;1.70;99.90
11446;DHT22;5779;64.178;15.432;2022-11-30T17:46:21;1.70;99.90
11446;DHT22;5779;64.178;15.432;2022-11-30T17:49:08;1.80;99.90
11446;DHT22;5779;64.178;15.432;2022-11-30T17:51:56;1.80;99.90
11446;DHT22;5779;64.178;15.432;2022-11-30T17:54:43;1.70;99.90
11446;DHT22;5779;64.178;15.432;2022-11-30T17:57:30;1.60;99.90
11446;DHT22;5779;64.178;15.432;2022-11-30T18:00:18;1.60;99.90
11446;DHT22;5779;64.178;15.432;2022-11-30T18:03:04;1.60;99.90
11446;DHT22;5779;64.178;15.432;2022-11-30T18:05:51;1.60;99.90
11446;DHT22;5779;64.178;15.432;2022-11-30T18:08:40;1.70;99.90
11446;DHT22;5779;64.178;15.432;2022-11-30T18:11:27;1.60;99.90
11446;DHT22;5779;64.178;15.432;2022-11-30T18:14:13;1.60;99.90
11446;DHT22;5779;64.178;15.432;2022-11-30T18:17:00;1.60;99.90
11446;DHT22;5779;64.178;15.432;2022-11-30T18:19:47;1.70;99.90
11446;DHT22;5779;64.178;15.432;2022-11-30T18:22:34;1.50;99.90
11446;DHT22;5779;64.178;15.432;2022-11-30T18:25:22;1.50;99.90
11446;DHT22;5779;64.178;15.432;2022-11-30T18:28:09;1.50;99.90
11446;DHT22;5779;64.178;15.432;2022-11-30T18:30:56;1.70;99.90
11446;DHT22;5779;64.178;15.432;2022-11-30T18:33:43;1.70;99.90
11446;DHT22;5779;64.178;15.432;2022-11-30T18:36:30;1.60;99.90
11446;DHT22;5779;64.178;15.432;2022-11-30T18:39:17;1.70;99.90
11446;DHT22;5779;64.178;15.432;2022-11-30T18:42:05;1.70;99.90
11446;DHT22;5779;64.178;15.432;2022-11-30T18:44:52;1.50;99.90
11446;DHT22;5779;64.178;15.432;2022-11-30T18:47:39;1.40;99.90
11446;DHT22;5779;64.178;15.432;2022-11-30T18:50:27;1.40;99.90
11446;DHT22;5779;64.178;15.432;2022-11-30T18:53:13;1.40;99.90
11446;DHT22;5779;64.178;15.432;2022-11-30T18:56:07;1.50;99.90
11446;DHT22;5779;64.178;15.432;2022-11-30T18:58:56;1.50;99.90
11446;DHT22;5779;64.178;15.432;2022-11-30T19:01:42;1.40;99.90
11446;DHT22;5779;64.178;15.432;2022-11-30T19:04:30;1.40;99.90
11446;DHT22;5779;64.178;15.432;2022-11-30T19:07:17;1.30;99.90
11446;DHT22;5779;64.178;15.432;2022-11-30T19:10:04;1.10;99.90
11446;DHT22;5779;64.178;15.432;2022-11-30T19:12:51;1.10;99.90
11446;DHT22;5779;64.178;15.432;2022-11-30T19:15:40;1.20;99.90
11446;DHT22;5779;64.178;15.432;2022-11-30T19:18:27;1.30;99.90
11446;DHT22;5779;64.178;15.432;2022-11-30T19:21:16;1.20;99.90
11446;DHT22;5779;64.178;15.432;2022-11-30T19:24:02;1.10;99.90
11446;DHT22;5779;64.178;15.432;2022-11-30T19:26:50;0.90;99.90
11446;DHT22;5779;64.178;15.432;2022-11-30T19:29:37;1.00;99.90
11446;DHT22;5779;64.178;15.432;2022-11-30T19:32:25;1.10;99.90
11446;DHT22;5779;64.178;15.432;2022-11-30T19:35:12;1.20;99.90
11446;DHT22;5779;64.178;15.432;2022-11-30T19:37:59;1.10;99.90
11446;DHT22;5779;64.178;15.432;2022-11-30T19:40:47;1.30;99.90
11446;DHT22;5779;64.178;15.432;2022-11-30T19:43:34;1.40;99.90
11446;DHT22;5779;64.178;15.432;2022-11-30T19:46:21;1.30;99.90
11446;DHT22;5779;64.178;15.432;2022-11-30T19:49:09;1.30;99.90
11446;DHT22;5779;64.178;15.432;2022-11-30T19:51:56;1.20;99.90
11446;DHT22;5779;64.178;15.432;2022-11-30T19:54:43;1.30;99.90
11446;DHT22;5779;64.178;15.432;2022-11-30T19:57:30;1.20;99.90
11446;DHT22;5779;64.178;15.432;2022-11-30T20:00:17;1.00;99.90
11446;DHT22;5779;64.178;15.432;2022-11-30T20:03:04;1.10;99.90
11446;DHT22;5779;64.178;15.432;2022-11-30T20:05:55;1.10;99.90
11446;DHT22;5779;64.178;15.432;2022-11-30T20:08:42;1.10;99.90
11446;DHT22;5779;64.178;15.432;2022-11-30T20:11:29;1.10;99.90
11446;DHT22;5779;64.178;15.432;2022-11-30T20:14:16;1.30;99.90
11446;DHT22;5779;64.178;15.432;2022-11-30T20:17:03;1.10;99.90
11446;DHT22;5779;64.178;15.432;2022-11-30T20:19:49;1.00;99.90
11446;DHT22;5779;64.178;15.432;2022-11-30T20:22:38;1.00;99.90
11446;DHT22;5779;64.178;15.432;2022-11-30T20:25:24;1.00;99.90
11446;DHT22;5779;64.178;15.432;2022-11-30T20:28:12;1.10;99.90
11446;DHT22;5779;64.178;15.432;2022-11-30T20:31:01;1.00;99.90
11446;DHT22;5779;64.178;15.432;2022-11-30T20:33:48;0.70;99.90
11446;DHT22;5779;64.178;15.432;2022-11-30T20:36:35;0.70;99.90
11446;DHT22;5779;64.178;15.432;2022-11-30T20:39:23;0.80;99.90
11446;DHT22;5779;64.178;15.432;2022-11-30T20:42:10;0.90;99.90
11446;DHT22;5779;64.178;15.432;2022-11-30T20:44:57;0.90;99.90
11446;DHT22;5779;64.178;15.432;2022-11-30T20:47:44;0.90;99.90
11446;DHT22;5779;64.178;15.432;2022-11-30T20:50:30;1.00;99.90
11446;DHT22;5779;64.178;15.432;2022-11-30T20:53:17;1.10;99.90
11446;DHT22;5779;64.178;15.432;2022-11-30T20:56:06;1.10;99.90
11446;DHT22;5779;64.178;15.432;2022-11-30T20:58:53;1.10;99.90
11446;DHT22;5779;64.178;15.432;2022-11-30T21:01:41;1.00;99.90
11446;DHT22;5779;64.178;15.432;2022-11-30T21:04:28;1.20;99.90
11446;DHT22;5779;64.178;15.432;2022-11-30T21:07:15;1.20;99.90
11446;DHT22;5779;64.178;15.432;2022-11-30T21:10:02;1.30;99.90
11446;DHT22;5779;64.178;15.432;2022-11-30T21:12:50;1.30;99.90
11446;DHT22;5779;64.178;15.432;2022-11-30T21:15:37;1.30;99.90
11446;DHT22;5779;64.178;15.432;2022-11-30T21:18:24;1.10;99.90
11446;DHT22;5779;64.178;15.432;2022-11-30T21:21:13;1.00;99.90
11446;DHT22;5779;64.178;15.432;2022-11-30T21:24:03;1.20;99.90
11446;DHT22;5779;64.178;15.432;2022-11-30T21:26:50;1.20;99.90
11446;DHT22;5779;64.178;15.432;2022-11-30T21:29:38;0.90;99.90
11446;DHT22;5779;64.178;15.432;2022-11-30T21:32:25;0.80;99.90
11446;DHT22;5779;64.178;15.432;2022-11-30T21:35:11;0.80;99.90
11446;DHT22;5779;64.178;15.432;2022-11-30T21:37:58;0.60;99.90
11446;DHT22;5779;64.178;15.432;2022-11-30T21:40:53;0.60;99.90
11446;DHT22;5779;64.178;15.432;2022-11-30T21:43:40;0.30;99.90
11446;DHT22;5779;64.178;15.432;2022-11-30T21:46:29;0.10;99.90
11446;DHT22;5779;64.178;15.432;2022-11-30T21:49:15;0.00;99.90
11446;DHT22;5779;64.178;15.432;2022-11-30T21:52:02;0.00;99.90
11446;DHT22;5779;64.178;15.432;2022-11-30T21:54:49;-0.10;99.90
11446;DHT22;5779;64.178;15.432;2022-11-30T21:57:37;0.10;99.90
11446;DHT22;5779;64.178;15.432;2022-11-30T22:00:24;0.20;99.90
11446;DHT22;5779;64.178;15.432;2022-11-30T22:03:12;0.20;99.90
11446;DHT22;5779;64.178;15.432;2022-11-30T22:06:00;0.30;99.90
11446;DHT22;5779;64.178;15.432;2022-11-30T22:08:47;0.30;99.90
11446;DHT22;5779;64.178;15.432;2022-11-30T22:11:35;0.40;99.90
11446;DHT22;5779;64.178;15.432;2022-11-30T22:14:23;0.70;99.90
11446;DHT22;5779;64.178;15.432;2022-11-30T22:17:10;0.80;99.90
11446;DHT22;5779;64.178;15.432;2022-11-30T22:19:58;0.80;99.90
11446;DHT22;5779;64.178;15.432;2022-11-30T22:22:44;0.70;99.90
11446;DHT22;5779;64.178;15.432;2022-11-30T22:25:31;0.80;99.90
11446;DHT22;5779;64.178;15.432;2022-11-30T22:28:18;0.80;99.90
11446;DHT22;5779;64.178;15.432;2022-11-30T22:31:07;0.90;99.90
11446;DHT22;5779;64.178;15.432;2022-11-30T22:33:54;0.90;99.90
11446;DHT22;5779;64.178;15.432;2022-11-30T22:36:44;0.80;99.90
11446;DHT22;5779;64.178;15.432;2022-11-30T22:39:30;0.80;99.90
11446;DHT22;5779;64.178;15.432;2022-11-30T22:42:17;0.90;99.90
11446;DHT22;5779;64.178;15.432;2022-11-30T22:45:05;0.90;99.90
11446;DHT22;5779;64.178;15.432;2022-11-30T22:47:52;0.90;99.90
11446;DHT22;5779;64.178;15.432;2022-11-30T22:50:39;0.90;99.90
11446;DHT22;5779;64.178;15.432;2022-11-30T22:53:28;0.80;99.90
11446;DHT22;5779;64.178;15.432;2022-11-30T22:56:17;0.80;99.90
11446;DHT22;5779;64.178;15.432;2022-11-30T22:59:04;0.90;99.90
11446;DHT22;5779;64.178;15.432;2022-11-30T23:01:51;0.90;99.90